sensor_id;sensor_type;location;lat;lon;timestamp;P1;durP1;ratioP1;P2;durP2;ratioP2
65558;SDS011;52203;51.998;5.140;2022-11-15T00:00:27;40.25;;;15.93;;
65558;SDS011;52203;51.998;5.140;2022-11-15T00:02:53;43.65;;;17.33;;
65558;SDS011;52203;51.998;5.140;2022-11-15T00:05:19;41.42;;;16.10;;
65558;SDS011;52203;51.998;5.140;2022-11-15T00:07:45;44.30;;;15.85;;
65558;SDS011;52203;51.998;5.140;2022-11-15T00:10:11;36.45;;;15.48;;
65558;SDS011;52203;51.998;5.140;2022-11-15T00:12:37;41.95;;;16.83;;
65558;SDS011;52203;51.998;5.140;2022-11-15T00:15:02;43.40;;;15.65;;
65558;SDS011;52203;51.998;5.140;2022-11-15T00:17:28;41.15;;;16.38;;
65558;SDS011;52203;51.998;5.140;2022-11-15T00:19:54;40.08;;;14.73;;
65558;SDS011;52203;51.998;5.140;2022-11-15T00:22:20;48.92;;;18.48;;
65558;SDS011;52203;51.998;5.140;2022-11-15T00:24:45;40.45;;;16.17;;
65558;SDS011;52203;51.998;5.140;2022-11-15T00:27:11;41.17;;;16.88;;
65558;SDS011;52203;51.998;5.140;2022-11-15T00:29:36;44.17;;;17.13;;
65558;SDS011;52203;51.998;5.140;2022-11-15T00:32:03;42.33;;;16.52;;
65558;SDS011;52203;51.998;5.140;2022-11-15T00:34:30;46.15;;;17.52;;
65558;SDS011;52203;51.998;5.140;2022-11-15T00:36:55;47.15;;;15.73;;
65558;SDS011;52203;51.998;5.140;2022-11-15T00:39:21;44.92;;;16.27;;
65558;SDS011;52203;51.998;5.140;2022-11-15T00:41:47;50.45;;;16.30;;
65558;SDS011;52203;51.998;5.140;2022-11-15T00:44:12;43.42;;;18.30;;
65558;SDS011;52203;51.998;5.140;2022-11-15T00:46:38;42.05;;;16.58;;
65558;SDS011;52203;51.998;5.140;2022-11-15T00:49:03;31.70;;;13.85;;
65558;SDS011;52203;51.998;5.140;2022-11-15T00:51:29;43.08;;;16.67;;
65558;SDS011;52203;51.998;5.140;2022-11-15T00:53:54;42.85;;;16.63;;
65558;SDS011;52203;51.998;5.140;2022-11-15T00:56:20;44.25;;;16.88;;
65558;SDS011;52203;51.998;5.140;2022-11-15T00:58:45;35.13;;;15.57;;
65558;SDS011;52203;51.998;5.140;2022-11-15T01:01:12;49.10;;;18.20;;
65558;SDS011;52203;51.998;5.140;2022-11-15T01:03:39;39.72;;;16.73;;
65558;SDS011;52203;51.998;5.140;2022-11-15T01:06:06;43.08;;;16.33;;
65558;SDS011;52203;51.998;5.140;2022-11-15T01:08:34;43.05;;;17.08;;
65558;SDS011;52203;51.998;5.140;2022-11-15T01:11:04;43.17;;;17.40;;
65558;SDS011;52203;51.998;5.140;2022-11-15T01:13:32;44.35;;;17.65;;
65558;SDS011;52203;51.998;5.140;2022-11-15T01:15:59;46.35;;;17.85;;
65558;SDS011;52203;51.998;5.140;2022-11-15T01:18:30;45.70;;;17.77;;
65558;SDS011;52203;51.998;5.140;2022-11-15T01:20:55;42.30;;;16.35;;
65558;SDS011;52203;51.998;5.140;2022-11-15T01:23:21;46.35;;;17.40;;
65558;SDS011;52203;51.998;5.140;2022-11-15T01:25:46;45.70;;;17.63;;
65558;SDS011;52203;51.998;5.140;2022-11-15T01:28:12;39.90;;;15.25;;
65558;SDS011;52203;51.998;5.140;2022-11-15T01:30:38;41.60;;;17.00;;
65558;SDS011;52203;51.998;5.140;2022-11-15T01:33:03;40.78;;;16.98;;
65558;SDS011;52203;51.998;5.140;2022-11-15T01:35:29;47.40;;;18.25;;
65558;SDS011;52203;51.998;5.140;2022-11-15T01:37:54;37.72;;;15.52;;
65558;SDS011;52203;51.998;5.140;2022-11-15T01:40:20;35.05;;;14.32;;
65558;SDS011;52203;51.998;5.140;2022-11-15T01:42:45;43.38;;;16.45;;
65558;SDS011;52203;51.998;5.140;2022-11-15T01:45:13;54.47;;;19.70;;
65558;SDS011;52203;51.998;5.140;2022-11-15T01:47:40;40.97;;;16.35;;
65558;SDS011;52203;51.998;5.140;2022-11-15T01:50:14;46.50;;;17.23;;
65558;SDS011;52203;51.998;5.140;2022-11-15T01:52:42;41.10;;;16.20;;
65558;SDS011;52203;51.998;5.140;2022-11-15T01:55:16;44.10;;;17.95;;
65558;SDS011;52203;51.998;5.140;2022-11-15T01:57:46;42.50;;;17.67;;
65558;SDS011;52203;51.998;5.140;2022-11-15T02:00:15;42.20;;;18.15;;
65558;SDS011;52203;51.998;5.140;2022-11-15T02:02:42;41.63;;;17.27;;
65558;SDS011;52203;51.998;5.140;2022-11-15T02:05:08;41.92;;;15.82;;
65558;SDS011;52203;51.998;5.140;2022-11-15T02:07:34;43.78;;;17.67;;
65558;SDS011;52203;51.998;5.140;2022-11-15T02:10:07;40.38;;;16.65;;
65558;SDS011;52203;51.998;5.140;2022-11-15T02:12:34;38.47;;;17.00;;
65558;SDS011;52203;51.998;5.140;2022-11-15T02:15:01;39.40;;;15.93;;
65558;SDS011;52203;51.998;5.140;2022-11-15T02:17:42;40.60;;;18.27;;
65558;SDS011;52203;51.998;5.140;2022-11-15T02:29:00;40.00;;;16.23;;
65558;SDS011;52203;51.998;5.140;2022-11-15T02:34:21;36.63;;;17.13;;
65558;SDS011;52203;51.998;5.140;2022-11-15T02:39:50;42.03;;;17.75;;
65558;SDS011;52203;51.998;5.140;2022-11-15T02:42:25;39.78;;;15.82;;
65558;SDS011;52203;51.998;5.140;2022-11-15T02:45:13;43.85;;;17.92;;
65558;SDS011;52203;51.998;5.140;2022-11-15T02:47:46;39.63;;;17.63;;
65558;SDS011;52203;51.998;5.140;2022-11-15T02:50:17;36.83;;;17.63;;
65558;SDS011;52203;51.998;5.140;2022-11-15T02:52:45;43.15;;;17.63;;
65558;SDS011;52203;51.998;5.140;2022-11-15T02:55:31;35.42;;;16.48;;
65558;SDS011;52203;51.998;5.140;2022-11-15T03:08:49;38.47;;;16.58;;
65558;SDS011;52203;51.998;5.140;2022-11-15T03:11:17;37.47;;;16.80;;
65558;SDS011;52203;51.998;5.140;2022-11-15T03:19:17;40.20;;;18.35;;
65558;SDS011;52203;51.998;5.140;2022-11-15T03:21:51;36.83;;;16.60;;
65558;SDS011;52203;51.998;5.140;2022-11-15T03:24:20;36.58;;;16.13;;
65558;SDS011;52203;51.998;5.140;2022-11-15T03:26:49;36.28;;;15.63;;
65558;SDS011;52203;51.998;5.140;2022-11-15T03:29:17;35.05;;;17.55;;
65558;SDS011;52203;51.998;5.140;2022-11-15T03:31:51;38.95;;;17.80;;
65558;SDS011;52203;51.998;5.140;2022-11-15T03:36:53;35.90;;;16.02;;
65558;SDS011;52203;51.998;5.140;2022-11-15T03:39:19;34.88;;;17.02;;
65558;SDS011;52203;51.998;5.140;2022-11-15T03:44:45;37.47;;;16.73;;
65558;SDS011;52203;51.998;5.140;2022-11-15T03:47:25;39.10;;;17.17;;
65558;SDS011;52203;51.998;5.140;2022-11-15T03:50:04;37.35;;;16.35;;
65558;SDS011;52203;51.998;5.140;2022-11-15T03:52:34;37.47;;;17.67;;
65558;SDS011;52203;51.998;5.140;2022-11-15T03:55:01;35.40;;;16.55;;
65558;SDS011;52203;51.998;5.140;2022-11-15T03:57:29;39.35;;;17.45;;
65558;SDS011;52203;51.998;5.140;2022-11-15T03:59:54;38.75;;;16.90;;
65558;SDS011;52203;51.998;5.140;2022-11-15T04:02:20;37.20;;;16.80;;
65558;SDS011;52203;51.998;5.140;2022-11-15T04:04:45;34.95;;;16.45;;
65558;SDS011;52203;51.998;5.140;2022-11-15T04:07:11;37.88;;;16.63;;
65558;SDS011;52203;51.998;5.140;2022-11-15T04:09:36;35.75;;;15.90;;
65558;SDS011;52203;51.998;5.140;2022-11-15T04:12:20;40.38;;;16.63;;
65558;SDS011;52203;51.998;5.140;2022-11-15T04:14:56;32.78;;;15.95;;
65558;SDS011;52203;51.998;5.140;2022-11-15T04:17:42;37.30;;;17.35;;
65558;SDS011;52203;51.998;5.140;2022-11-15T04:23:02;36.92;;;15.68;;
65558;SDS011;52203;51.998;5.140;2022-11-15T04:25:52;35.75;;;16.17;;
65558;SDS011;52203;51.998;5.140;2022-11-15T04:28:19;31.27;;;15.20;;
65558;SDS011;52203;51.998;5.140;2022-11-15T04:30:44;38.95;;;16.45;;
65558;SDS011;52203;51.998;5.140;2022-11-15T04:33:10;35.72;;;16.02;;
65558;SDS011;52203;51.998;5.140;2022-11-15T04:35:36;34.17;;;16.48;;
65558;SDS011;52203;51.998;5.140;2022-11-15T04:38:02;31.20;;;16.63;;
65558;SDS011;52203;51.998;5.140;2022-11-15T04:40:29;33.33;;;14.73;;
65558;SDS011;52203;51.998;5.140;2022-11-15T04:42:55;32.95;;;14.90;;
65558;SDS011;52203;51.998;5.140;2022-11-15T04:45:20;33.17;;;15.68;;
65558;SDS011;52203;51.998;5.140;2022-11-15T04:47:46;36.00;;;15.13;;
65558;SDS011;52203;51.998;5.140;2022-11-15T04:50:12;32.45;;;14.77;;
65558;SDS011;52203;51.998;5.140;2022-11-15T04:52:42;30.85;;;13.88;;
65558;SDS011;52203;51.998;5.140;2022-11-15T04:55:09;30.27;;;15.48;;
65558;SDS011;52203;51.998;5.140;2022-11-15T04:57:36;34.65;;;15.35;;
65558;SDS011;52203;51.998;5.140;2022-11-15T05:00:06;31.77;;;14.57;;
65558;SDS011;52203;51.998;5.140;2022-11-15T05:02:33;31.52;;;15.00;;
65558;SDS011;52203;51.998;5.140;2022-11-15T05:05:17;31.70;;;14.52;;
65558;SDS011;52203;51.998;5.140;2022-11-15T05:07:43;30.00;;;14.00;;
65558;SDS011;52203;51.998;5.140;2022-11-15T05:10:08;32.92;;;15.18;;
65558;SDS011;52203;51.998;5.140;2022-11-15T05:12:34;27.00;;;14.15;;
65558;SDS011;52203;51.998;5.140;2022-11-15T05:15:00;28.17;;;14.43;;
65558;SDS011;52203;51.998;5.140;2022-11-15T05:17:26;28.55;;;14.35;;
65558;SDS011;52203;51.998;5.140;2022-11-15T05:19:51;27.42;;;14.25;;
65558;SDS011;52203;51.998;5.140;2022-11-15T05:22:17;29.20;;;14.45;;
65558;SDS011;52203;51.998;5.140;2022-11-15T05:24:43;29.88;;;14.45;;
65558;SDS011;52203;51.998;5.140;2022-11-15T05:27:09;30.13;;;14.10;;
65558;SDS011;52203;51.998;5.140;2022-11-15T05:29:34;30.35;;;15.02;;
65558;SDS011;52203;51.998;5.140;2022-11-15T05:32:00;31.42;;;14.60;;
65558;SDS011;52203;51.998;5.140;2022-11-15T05:34:26;32.72;;;14.60;;
65558;SDS011;52203;51.998;5.140;2022-11-15T05:36:51;31.77;;;14.73;;
65558;SDS011;52203;51.998;5.140;2022-11-15T05:39:17;29.42;;;14.55;;
65558;SDS011;52203;51.998;5.140;2022-11-15T05:41:47;32.47;;;14.82;;
65558;SDS011;52203;51.998;5.140;2022-11-15T05:44:18;27.65;;;14.00;;
65558;SDS011;52203;51.998;5.140;2022-11-15T05:46:47;30.27;;;15.23;;
65558;SDS011;52203;51.998;5.140;2022-11-15T05:49:16;35.90;;;15.00;;
65558;SDS011;52203;51.998;5.140;2022-11-15T05:51:45;33.45;;;16.17;;
65558;SDS011;52203;51.998;5.140;2022-11-15T05:54:11;32.35;;;15.10;;
65558;SDS011;52203;51.998;5.140;2022-11-15T05:56:37;30.70;;;15.13;;
65558;SDS011;52203;51.998;5.140;2022-11-15T05:59:03;39.30;;;16.85;;
65558;SDS011;52203;51.998;5.140;2022-11-15T06:01:29;32.75;;;16.17;;
65558;SDS011;52203;51.998;5.140;2022-11-15T06:03:55;33.72;;;16.00;;
65558;SDS011;52203;51.998;5.140;2022-11-15T06:06:20;31.10;;;14.40;;
65558;SDS011;52203;51.998;5.140;2022-11-15T06:08:46;29.15;;;14.05;;
65558;SDS011;52203;51.998;5.140;2022-11-15T06:11:12;32.97;;;15.55;;
65558;SDS011;52203;51.998;5.140;2022-11-15T06:13:38;30.85;;;14.63;;
65558;SDS011;52203;51.998;5.140;2022-11-15T06:16:04;25.90;;;12.85;;
65558;SDS011;52203;51.998;5.140;2022-11-15T06:18:31;32.80;;;14.07;;
65558;SDS011;52203;51.998;5.140;2022-11-15T06:20:59;32.97;;;14.70;;
65558;SDS011;52203;51.998;5.140;2022-11-15T06:23:25;30.38;;;14.95;;
65558;SDS011;52203;51.998;5.140;2022-11-15T06:25:50;27.38;;;13.75;;
65558;SDS011;52203;51.998;5.140;2022-11-15T06:28:16;31.95;;;15.15;;
65558;SDS011;52203;51.998;5.140;2022-11-15T06:30:41;30.33;;;14.23;;
65558;SDS011;52203;51.998;5.140;2022-11-15T06:33:07;30.50;;;14.98;;
65558;SDS011;52203;51.998;5.140;2022-11-15T06:35:34;31.75;;;15.02;;
65558;SDS011;52203;51.998;5.140;2022-11-15T06:38:08;31.08;;;15.45;;
65558;SDS011;52203;51.998;5.140;2022-11-15T06:40:35;26.75;;;13.77;;
65558;SDS011;52203;51.998;5.140;2022-11-15T06:43:02;32.15;;;16.05;;
65558;SDS011;52203;51.998;5.140;2022-11-15T06:45:28;31.33;;;14.48;;
65558;SDS011;52203;51.998;5.140;2022-11-15T06:47:54;32.60;;;14.15;;
65558;SDS011;52203;51.998;5.140;2022-11-15T06:50:19;30.60;;;15.43;;
65558;SDS011;52203;51.998;5.140;2022-11-15T06:52:45;27.55;;;13.23;;
65558;SDS011;52203;51.998;5.140;2022-11-15T06:55:11;30.58;;;13.82;;
65558;SDS011;52203;51.998;5.140;2022-11-15T06:57:36;28.98;;;14.52;;
65558;SDS011;52203;51.998;5.140;2022-11-15T07:00:05;32.67;;;14.82;;
65558;SDS011;52203;51.998;5.140;2022-11-15T07:02:31;30.85;;;13.98;;
65558;SDS011;52203;51.998;5.140;2022-11-15T07:04:57;30.67;;;13.98;;
65558;SDS011;52203;51.998;5.140;2022-11-15T07:07:22;32.78;;;14.18;;
65558;SDS011;52203;51.998;5.140;2022-11-15T07:09:48;28.38;;;14.02;;
65558;SDS011;52203;51.998;5.140;2022-11-15T07:12:13;30.15;;;14.05;;
65558;SDS011;52203;51.998;5.140;2022-11-15T07:14:39;27.65;;;13.77;;
65558;SDS011;52203;51.998;5.140;2022-11-15T07:17:04;30.55;;;14.00;;
65558;SDS011;52203;51.998;5.140;2022-11-15T07:19:30;27.85;;;12.98;;
65558;SDS011;52203;51.998;5.140;2022-11-15T07:21:56;27.60;;;12.45;;
65558;SDS011;52203;51.998;5.140;2022-11-15T07:24:21;29.73;;;14.20;;
65558;SDS011;52203;51.998;5.140;2022-11-15T07:26:47;25.58;;;12.45;;
65558;SDS011;52203;51.998;5.140;2022-11-15T07:29:13;26.88;;;12.60;;
65558;SDS011;52203;51.998;5.140;2022-11-15T07:31:38;23.67;;;12.00;;
65558;SDS011;52203;51.998;5.140;2022-11-15T07:34:04;25.48;;;12.55;;
65558;SDS011;52203;51.998;5.140;2022-11-15T07:36:29;28.48;;;12.57;;
65558;SDS011;52203;51.998;5.140;2022-11-15T07:38:55;23.25;;;11.60;;
65558;SDS011;52203;51.998;5.140;2022-11-15T07:41:21;22.55;;;11.38;;
65558;SDS011;52203;51.998;5.140;2022-11-15T07:43:46;21.52;;;10.52;;
65558;SDS011;52203;51.998;5.140;2022-11-15T07:46:12;21.52;;;10.93;;
65558;SDS011;52203;51.998;5.140;2022-11-15T07:48:38;22.45;;;10.85;;
65558;SDS011;52203;51.998;5.140;2022-11-15T07:51:05;21.27;;;11.20;;
65558;SDS011;52203;51.998;5.140;2022-11-15T07:53:31;24.65;;;10.52;;
65558;SDS011;52203;51.998;5.140;2022-11-15T07:55:57;23.95;;;11.10;;
65558;SDS011;52203;51.998;5.140;2022-11-15T07:58:23;25.45;;;10.90;;
65558;SDS011;52203;51.998;5.140;2022-11-15T08:00:48;26.30;;;10.65;;
65558;SDS011;52203;51.998;5.140;2022-11-15T08:03:14;22.10;;;10.27;;
65558;SDS011;52203;51.998;5.140;2022-11-15T08:05:42;25.05;;;11.48;;
65558;SDS011;52203;51.998;5.140;2022-11-15T08:08:09;23.08;;;11.13;;
65558;SDS011;52203;51.998;5.140;2022-11-15T08:10:36;25.45;;;11.13;;
65558;SDS011;52203;51.998;5.140;2022-11-15T08:15:29;25.33;;;12.10;;
65558;SDS011;52203;51.998;5.140;2022-11-15T08:17:56;26.50;;;11.70;;
65558;SDS011;52203;51.998;5.140;2022-11-15T08:20:27;21.13;;;10.27;;
65558;SDS011;52203;51.998;5.140;2022-11-15T08:22:56;23.67;;;9.93;;
65558;SDS011;52203;51.998;5.140;2022-11-15T08:25:23;21.48;;;11.10;;
65558;SDS011;52203;51.998;5.140;2022-11-15T08:27:55;22.77;;;10.65;;
65558;SDS011;52203;51.998;5.140;2022-11-15T08:30:22;23.05;;;9.70;;
65558;SDS011;52203;51.998;5.140;2022-11-15T08:32:48;21.63;;;10.75;;
65558;SDS011;52203;51.998;5.140;2022-11-15T08:35:14;22.92;;;10.77;;
65558;SDS011;52203;51.998;5.140;2022-11-15T08:37:40;17.45;;;10.00;;
65558;SDS011;52203;51.998;5.140;2022-11-15T08:40:05;21.45;;;10.55;;
65558;SDS011;52203;51.998;5.140;2022-11-15T08:42:31;19.55;;;9.27;;
65558;SDS011;52203;51.998;5.140;2022-11-15T08:44:57;22.58;;;10.75;;
65558;SDS011;52203;51.998;5.140;2022-11-15T08:47:23;20.77;;;8.85;;
65558;SDS011;52203;51.998;5.140;2022-11-15T08:49:49;25.00;;;9.60;;
65558;SDS011;52203;51.998;5.140;2022-11-15T08:52:14;18.65;;;9.55;;
65558;SDS011;52203;51.998;5.140;2022-11-15T08:54:40;18.13;;;9.00;;
65558;SDS011;52203;51.998;5.140;2022-11-15T08:57:06;20.45;;;8.75;;
65558;SDS011;52203;51.998;5.140;2022-11-15T08:59:34;20.77;;;9.98;;
65558;SDS011;52203;51.998;5.140;2022-11-15T09:02:00;19.60;;;9.63;;
65558;SDS011;52203;51.998;5.140;2022-11-15T09:04:26;21.88;;;10.68;;
65558;SDS011;52203;51.998;5.140;2022-11-15T09:06:51;21.38;;;9.68;;
65558;SDS011;52203;51.998;5.140;2022-11-15T09:09:17;24.67;;;10.23;;
65558;SDS011;52203;51.998;5.140;2022-11-15T09:11:42;20.50;;;10.18;;
65558;SDS011;52203;51.998;5.140;2022-11-15T09:14:10;19.63;;;10.32;;
65558;SDS011;52203;51.998;5.140;2022-11-15T09:16:36;18.90;;;9.35;;
65558;SDS011;52203;51.998;5.140;2022-11-15T09:19:01;21.02;;;9.27;;
65558;SDS011;52203;51.998;5.140;2022-11-15T09:21:28;23.75;;;10.93;;
65558;SDS011;52203;51.998;5.140;2022-11-15T09:23:54;17.38;;;8.52;;
65558;SDS011;52203;51.998;5.140;2022-11-15T09:26:20;20.27;;;9.60;;
65558;SDS011;52203;51.998;5.140;2022-11-15T09:28:46;18.15;;;8.38;;
65558;SDS011;52203;51.998;5.140;2022-11-15T09:31:12;17.13;;;8.25;;
65558;SDS011;52203;51.998;5.140;2022-11-15T09:33:37;16.52;;;7.97;;
65558;SDS011;52203;51.998;5.140;2022-11-15T09:36:04;15.70;;;8.43;;
65558;SDS011;52203;51.998;5.140;2022-11-15T09:38:33;16.05;;;8.20;;
65558;SDS011;52203;51.998;5.140;2022-11-15T09:41:14;14.95;;;7.20;;
65558;SDS011;52203;51.998;5.140;2022-11-15T09:44:06;15.75;;;7.70;;
65558;SDS011;52203;51.998;5.140;2022-11-15T09:49:38;15.07;;;8.05;;
65558;SDS011;52203;51.998;5.140;2022-11-15T09:52:04;15.20;;;6.75;;
65558;SDS011;52203;51.998;5.140;2022-11-15T09:54:36;14.35;;;8.18;;
65558;SDS011;52203;51.998;5.140;2022-11-15T09:57:04;12.93;;;7.15;;
65558;SDS011;52203;51.998;5.140;2022-11-15T10:04:59;13.63;;;6.22;;
65558;SDS011;52203;51.998;5.140;2022-11-15T10:07:27;15.77;;;7.35;;
65558;SDS011;52203;51.998;5.140;2022-11-15T10:10:09;14.40;;;7.22;;
65558;SDS011;52203;51.998;5.140;2022-11-15T10:12:40;13.00;;;7.35;;
65558;SDS011;52203;51.998;5.140;2022-11-15T10:15:12;15.65;;;7.40;;
65558;SDS011;52203;51.998;5.140;2022-11-15T10:17:55;13.20;;;6.38;;
65558;SDS011;52203;51.998;5.140;2022-11-15T10:23:11;13.63;;;6.43;;
65558;SDS011;52203;51.998;5.140;2022-11-15T10:25:40;13.65;;;6.63;;
65558;SDS011;52203;51.998;5.140;2022-11-15T10:28:09;12.15;;;6.28;;
65558;SDS011;52203;51.998;5.140;2022-11-15T10:30:51;15.38;;;6.25;;
65558;SDS011;52203;51.998;5.140;2022-11-15T10:41:22;11.88;;;5.65;;
65558;SDS011;52203;51.998;5.140;2022-11-15T10:44:02;10.43;;;4.78;;
65558;SDS011;52203;51.998;5.140;2022-11-15T10:46:37;7.65;;;4.53;;
65558;SDS011;52203;51.998;5.140;2022-11-15T10:54:21;9.05;;;3.67;;
65558;SDS011;52203;51.998;5.140;2022-11-15T10:59:23;6.28;;;3.70;;
65558;SDS011;52203;51.998;5.140;2022-11-15T11:04:17;7.13;;;3.75;;
65558;SDS011;52203;51.998;5.140;2022-11-15T11:12:00;5.57;;;3.10;;
65558;SDS011;52203;51.998;5.140;2022-11-15T11:14:31;5.97;;;2.95;;
65558;SDS011;52203;51.998;5.140;2022-11-15T11:25:33;5.72;;;2.63;;
65558;SDS011;52203;51.998;5.140;2022-11-15T11:30:51;6.05;;;2.88;;
65558;SDS011;52203;51.998;5.140;2022-11-15T11:38:24;3.83;;;2.20;;
65558;SDS011;52203;51.998;5.140;2022-11-15T11:41:04;6.63;;;2.42;;
65558;SDS011;52203;51.998;5.140;2022-11-15T11:43:51;5.28;;;2.25;;
65558;SDS011;52203;51.998;5.140;2022-11-15T11:49:22;7.13;;;2.30;;
65558;SDS011;52203;51.998;5.140;2022-11-15T11:51:56;6.93;;;1.95;;
65558;SDS011;52203;51.998;5.140;2022-11-15T11:57:22;4.35;;;2.15;;
65558;SDS011;52203;51.998;5.140;2022-11-15T12:00:04;4.93;;;1.80;;
65558;SDS011;52203;51.998;5.140;2022-11-15T12:02:40;4.35;;;1.85;;
65558;SDS011;52203;51.998;5.140;2022-11-15T12:08:23;6.95;;;1.83;;
65558;SDS011;52203;51.998;5.140;2022-11-15T12:11:13;4.60;;;1.73;;
65558;SDS011;52203;51.998;5.140;2022-11-15T12:13:39;8.18;;;1.70;;
65558;SDS011;52203;51.998;5.140;2022-11-15T12:16:14;5.47;;;1.67;;
65558;SDS011;52203;51.998;5.140;2022-11-15T12:18:51;3.38;;;1.60;;
65558;SDS011;52203;51.998;5.140;2022-11-15T12:24:13;9.82;;;1.60;;
65558;SDS011;52203;51.998;5.140;2022-11-15T12:27:32;3.67;;;1.30;;
65558;SDS011;52203;51.998;5.140;2022-11-15T12:29:40;4.75;;;1.35;;
65558;SDS011;52203;51.998;5.140;2022-11-15T12:35:03;3.22;;;1.30;;
65558;SDS011;52203;51.998;5.140;2022-11-15T12:42:39;4.97;;;1.65;;
65558;SDS011;52203;51.998;5.140;2022-11-15T12:45:24;5.80;;;1.13;;
65558;SDS011;52203;51.998;5.140;2022-11-15T12:47:52;4.03;;;1.10;;
65558;SDS011;52203;51.998;5.140;2022-11-15T12:50:52;3.53;;;1.40;;
65558;SDS011;52203;51.998;5.140;2022-11-15T12:59:38;3.05;;;1.40;;
65558;SDS011;52203;51.998;5.140;2022-11-15T13:04:11;6.32;;;1.63;;
65558;SDS011;52203;51.998;5.140;2022-11-15T13:06:44;5.80;;;1.50;;
65558;SDS011;52203;51.998;5.140;2022-11-15T13:11:59;3.17;;;1.38;;
65558;SDS011;52203;51.998;5.140;2022-11-15T13:14:42;3.50;;;1.30;;
65558;SDS011;52203;51.998;5.140;2022-11-15T13:22:26;4.18;;;1.40;;
65558;SDS011;52203;51.998;5.140;2022-11-15T13:25:22;4.97;;;1.50;;
65558;SDS011;52203;51.998;5.140;2022-11-15T13:28:17;4.07;;;1.58;;
65558;SDS011;52203;51.998;5.140;2022-11-15T13:33:20;4.22;;;1.67;;
65558;SDS011;52203;51.998;5.140;2022-11-15T13:35:54;5.63;;;1.42;;
65558;SDS011;52203;51.998;5.140;2022-11-15T13:38:26;3.60;;;1.60;;
65558;SDS011;52203;51.998;5.140;2022-11-15T13:40:54;4.43;;;1.42;;
65558;SDS011;52203;51.998;5.140;2022-11-15T13:46:29;3.92;;;1.60;;
65558;SDS011;52203;51.998;5.140;2022-11-15T13:48:37;4.93;;;1.60;;
65558;SDS011;52203;51.998;5.140;2022-11-15T13:51:04;5.93;;;1.52;;
65558;SDS011;52203;51.998;5.140;2022-11-15T13:53:39;3.30;;;1.63;;
65558;SDS011;52203;51.998;5.140;2022-11-15T13:56:07;2.83;;;1.30;;
65558;SDS011;52203;51.998;5.140;2022-11-15T13:58:36;4.43;;;1.70;;
65558;SDS011;52203;51.998;5.140;2022-11-15T14:01:04;5.13;;;1.60;;
65558;SDS011;52203;51.998;5.140;2022-11-15T14:03:35;6.15;;;1.88;;
65558;SDS011;52203;51.998;5.140;2022-11-15T14:06:18;3.95;;;1.77;;
65558;SDS011;52203;51.998;5.140;2022-11-15T14:11:54;4.93;;;1.73;;
65558;SDS011;52203;51.998;5.140;2022-11-15T14:14:21;5.40;;;2.13;;
65558;SDS011;52203;51.998;5.140;2022-11-15T14:16:49;6.15;;;1.98;;
65558;SDS011;52203;51.998;5.140;2022-11-15T14:22:07;5.20;;;2.10;;
65558;SDS011;52203;51.998;5.140;2022-11-15T14:24:38;7.50;;;1.92;;
65558;SDS011;52203;51.998;5.140;2022-11-15T14:29:47;8.77;;;2.30;;
65558;SDS011;52203;51.998;5.140;2022-11-15T14:32:16;5.85;;;2.17;;
65558;SDS011;52203;51.998;5.140;2022-11-15T14:34:44;3.75;;;1.77;;
65558;SDS011;52203;51.998;5.140;2022-11-15T14:37:18;5.03;;;2.10;;
65558;SDS011;52203;51.998;5.140;2022-11-15T14:39:47;5.35;;;1.90;;
65558;SDS011;52203;51.998;5.140;2022-11-15T14:42:12;3.22;;;1.75;;
65558;SDS011;52203;51.998;5.140;2022-11-15T14:44:38;5.78;;;1.80;;
65558;SDS011;52203;51.998;5.140;2022-11-15T14:47:03;2.67;;;1.50;;
65558;SDS011;52203;51.998;5.140;2022-11-15T14:49:29;4.82;;;1.80;;
65558;SDS011;52203;51.998;5.140;2022-11-15T14:51:55;3.63;;;1.80;;
65558;SDS011;52203;51.998;5.140;2022-11-15T14:54:20;6.78;;;1.90;;
65558;SDS011;52203;51.998;5.140;2022-11-15T14:56:46;5.13;;;1.80;;
65558;SDS011;52203;51.998;5.140;2022-11-15T14:59:11;6.88;;;1.90;;
65558;SDS011;52203;51.998;5.140;2022-11-15T15:01:37;6.60;;;2.00;;
65558;SDS011;52203;51.998;5.140;2022-11-15T15:04:02;5.07;;;2.10;;
65558;SDS011;52203;51.998;5.140;2022-11-15T15:06:28;4.93;;;1.83;;
65558;SDS011;52203;51.998;5.140;2022-11-15T15:08:55;7.22;;;2.00;;
65558;SDS011;52203;51.998;5.140;2022-11-15T15:11:22;4.25;;;1.70;;
65558;SDS011;52203;51.998;5.140;2022-11-15T15:13:50;7.22;;;1.98;;
65558;SDS011;52203;51.998;5.140;2022-11-15T15:16:17;3.28;;;1.60;;
65558;SDS011;52203;51.998;5.140;2022-11-15T15:18:43;3.72;;;1.38;;
65558;SDS011;52203;51.998;5.140;2022-11-15T15:21:22;2.92;;;1.80;;
65558;SDS011;52203;51.998;5.140;2022-11-15T15:23:49;3.03;;;1.70;;
65558;SDS011;52203;51.998;5.140;2022-11-15T15:26:15;4.20;;;1.80;;
65558;SDS011;52203;51.998;5.140;2022-11-15T15:28:41;5.43;;;1.50;;
65558;SDS011;52203;51.998;5.140;2022-11-15T15:31:07;7.13;;;2.15;;
65558;SDS011;52203;51.998;5.140;2022-11-15T15:33:34;3.53;;;1.50;;
65558;SDS011;52203;51.998;5.140;2022-11-15T15:36:00;3.20;;;1.77;;
65558;SDS011;52203;51.998;5.140;2022-11-15T15:38:25;6.13;;;1.98;;
65558;SDS011;52203;51.998;5.140;2022-11-15T15:40:51;5.22;;;1.90;;
65558;SDS011;52203;51.998;5.140;2022-11-15T15:43:17;4.50;;;1.85;;
65558;SDS011;52203;51.998;5.140;2022-11-15T15:45:42;3.72;;;1.85;;
65558;SDS011;52203;51.998;5.140;2022-11-15T15:48:13;3.10;;;1.73;;
65558;SDS011;52203;51.998;5.140;2022-11-15T15:50:40;6.18;;;1.70;;
65558;SDS011;52203;51.998;5.140;2022-11-15T15:53:08;4.05;;;1.85;;
65558;SDS011;52203;51.998;5.140;2022-11-15T15:55:35;5.35;;;2.00;;
65558;SDS011;52203;51.998;5.140;2022-11-15T15:58:01;4.00;;;1.83;;
65558;SDS011;52203;51.998;5.140;2022-11-15T16:00:26;4.47;;;1.55;;
65558;SDS011;52203;51.998;5.140;2022-11-15T16:02:52;5.30;;;1.77;;
65558;SDS011;52203;51.998;5.140;2022-11-15T16:05:19;4.70;;;1.95;;
65558;SDS011;52203;51.998;5.140;2022-11-15T16:07:45;6.00;;;1.67;;
65558;SDS011;52203;51.998;5.140;2022-11-15T16:10:16;6.55;;;1.75;;
65558;SDS011;52203;51.998;5.140;2022-11-15T16:12:53;4.38;;;1.67;;
65558;SDS011;52203;51.998;5.140;2022-11-15T16:15:21;8.10;;;1.92;;
65558;SDS011;52203;51.998;5.140;2022-11-15T16:17:51;3.92;;;1.55;;
65558;SDS011;52203;51.998;5.140;2022-11-15T16:20:35;18.45;;;10.43;;
65558;SDS011;52203;51.998;5.140;2022-11-15T16:23:21;9.65;;;4.43;;
65558;SDS011;52203;51.998;5.140;2022-11-15T16:25:53;6.65;;;2.90;;
65558;SDS011;52203;51.998;5.140;2022-11-15T16:28:29;6.10;;;2.80;;
65558;SDS011;52203;51.998;5.140;2022-11-15T16:31:07;5.07;;;3.50;;
65558;SDS011;52203;51.998;5.140;2022-11-15T16:33:35;4.85;;;2.90;;
65558;SDS011;52203;51.998;5.140;2022-11-15T16:36:01;4.78;;;2.97;;
65558;SDS011;52203;51.998;5.140;2022-11-15T16:38:28;5.03;;;3.40;;
65558;SDS011;52203;51.998;5.140;2022-11-15T16:40:53;9.25;;;4.43;;
65558;SDS011;52203;51.998;5.140;2022-11-15T16:43:19;10.27;;;7.03;;
65558;SDS011;52203;51.998;5.140;2022-11-15T16:45:46;7.25;;;5.15;;
65558;SDS011;52203;51.998;5.140;2022-11-15T16:48:29;7.47;;;5.38;;
65558;SDS011;52203;51.998;5.140;2022-11-15T16:50:55;6.53;;;5.40;;
65558;SDS011;52203;51.998;5.140;2022-11-15T16:53:22;10.65;;;7.47;;
65558;SDS011;52203;51.998;5.140;2022-11-15T16:55:48;5.90;;;5.15;;
65558;SDS011;52203;51.998;5.140;2022-11-15T16:58:14;10.13;;;4.35;;
65558;SDS011;52203;51.998;5.140;2022-11-15T17:00:39;7.90;;;4.07;;
65558;SDS011;52203;51.998;5.140;2022-11-15T17:03:05;6.57;;;3.78;;